Řízení letového provozu České republiky  
Aktualizace dat:  23.10.2014 21:06:31 UTC English version
   METEO Zobrazení stránky:  23.10.2014 21:14:26 UTC  
vysvětlivky
METAR EDDB 232050Z 14006KT 9999 SCT006 BKN014 09/08 Q1024 BECMG BKN005=
METAR EDDC 232050Z 05004KT 9999 BKN017 08/06 Q1023=
METAR EDDE 232050Z 21006KT 9999 FEW030 SCT300 05/05 Q1024=
METAR EDDF 232050Z 00000KT 9999 FEW040 SCT280 07/06 Q1024 NOSIG=
METAR EDDM 232050Z 26008KT 9999 BKN021 07/06 Q1024 NOSIG=
METAR EDDN 232050Z VRB01KT 9999 BKN031 08/07 Q1024=
METAR EDDP 232050Z 15004KT 9999 OVC032 10/10 Q1024 NOSIG=
METAR EDDT 232050Z 13005KT 9999 BKN014 10/07 Q1024 NOSIG=
METAR EDQM 231750Z VRB01KT 7000 OVC019 07/05 Q1023=
METAR EPBY 232100Z 09004KT 9999 OVC020 05/02 Q1026 =
METAR EPGD 232100Z 14004KT 110V190 9999 BKN007 04/02 Q1026 =
METAR EPKK 232100Z 06011KT 9999 BKN006 BKN010 03/03 Q1022 =
METAR EPKT 232100Z 35008KT 9999 FEW002 SCT004 BKN006 03/02 Q1022 =
METAR EPLL 232100Z 07006KT 9999 BKN013 03/00 Q1024 =
METAR EPPO 232100Z 08004KT 6000 OVC006 06/04 Q1025 =
METAR EPRZ 232100Z 06010KT 9999 BKN009 OVC013 02/01 Q1022 =
METAR EPWA 232100Z 08010KT CAVOK 02/M03 Q1026 NOSIG=
METAR EPWR 232100Z 02006KT 7000 OVC008 07/05 Q1024 =
METAR LHBP 232100Z 36013KT 9999 FEW040 SCT110 11/06 Q1009 NOSIG=
METAR LHSM 231545Z 35016G28KT 8000 -RA BKN007 BKN013 OVC030 09/07 Q1009=
METAR COR LKCV 232100Z 29004KT 9999 FEW004 SCT030 07/06 Q1022 NOSIG=
METAR LKKB 232100Z 32002KT 9999 SCT010 BKN043 06/06 Q1022 NOSIG =
METAR LKKU NIL
METAR LKKV 232100Z 32003KT 9999 BKN030 07/06 Q1023 RMK REG QNH 1017=
METAR LKLN 232100Z AUTO 29002KT //// OVC019 08/07 Q1023=
METAR LKMT 232100Z 02013KT 5000 -DZ BR OVC005 04/03 Q1021 NOSIG RMK REG QNH 1017=
METAR LKNA 232100Z 34013KT 9999 SCT009 OVC011 06/05 Q1018=
METAR LKPD 232100Z VRB03KT 9999 SCT020 BKN060 08/05 Q1022 =
METAR LKPR 232100Z 36005KT 9999 OVC009 07/06 Q1023 NOSIG RMK REG QNH 1017=
METAR LKTB 232100Z 03012KT 9999 BKN020 08/04 Q1018 NOSIG RMK REG QNH 1017=
METAR LKVO NIL
METAR LOWI 232050Z VRB02KT 8000 -DZ FEW005 SCT009 BKN050 04/04 Q1025 NOSIG=
METAR LOWL 232050Z 27009KT 9999 SCT031 BKN038 09/08 Q1022 NOSIG=
METAR LOWS 232050Z 21003KT 180V250 9999 -RA FEW005 BKN016 06/05 Q1024 RERA NOSIG=
METAR LOWW 232050Z 35016KT 9999 OVC017 08/06 Q1017 NOSIG=
METAR LZIB 232100Z 36017KT 9999 FEW018 BKN077 08/04 Q1014=
METAR LZKZ 232100Z 36030KT 9999 FEW015 SCT019 06/03 Q1014=
METAR LZPP 232100Z AUTO 36024KT 9999 BKN093/// OVC110/// 08/03 Q1014=
METAR LZSL 232100Z 01014KT CAVOK 09/04 Q1012=
METAR LZTT 232100Z 10013KT 9999 FEW006 OVC017 03/01 Q1016=
METAR LZZI 232100Z 05011KT 020V080 9999 OVC024 05/02 Q1018=